sensor_id;sensor_type;location;lat;lon;timestamp;P1;durP1;ratioP1;P2;durP2;ratioP2
60241;SDS011;46103;52.076;113.488;2023-01-10T00:01:50;333.20;;;116.13;;
60241;SDS011;46103;52.076;113.488;2023-01-10T00:04:53;363.42;;;122.93;;
60241;SDS011;46103;52.076;113.488;2023-01-10T00:07:56;264.40;;;94.72;;
60241;SDS011;46103;52.076;113.488;2023-01-10T00:11:00;261.08;;;94.13;;
60241;SDS011;46103;52.076;113.488;2023-01-10T00:14:25;340.48;;;118.95;;
60241;SDS011;46103;52.076;113.488;2023-01-10T00:17:30;365.33;;;127.47;;
60241;SDS011;46103;52.076;113.488;2023-01-10T00:20:34;292.80;;;101.90;;
60241;SDS011;46103;52.076;113.488;2023-01-10T00:23:39;345.17;;;119.75;;
60241;SDS011;46103;52.076;113.488;2023-01-10T00:26:44;341.73;;;116.30;;
60241;SDS011;46103;52.076;113.488;2023-01-10T00:29:54;320.15;;;108.85;;
60241;SDS011;46103;52.076;113.488;2023-01-10T00:32:59;328.95;;;114.25;;
60241;SDS011;46103;52.076;113.488;2023-01-10T00:36:04;358.40;;;112.20;;
60241;SDS011;46103;52.076;113.488;2023-01-10T00:39:10;292.88;;;97.30;;
60241;SDS011;46103;52.076;113.488;2023-01-10T00:42:13;206.93;;;68.28;;
60241;SDS011;46103;52.076;113.488;2023-01-10T00:45:35;314.55;;;107.65;;
60241;SDS011;46103;52.076;113.488;2023-01-10T00:48:41;342.75;;;119.28;;
60241;SDS011;46103;52.076;113.488;2023-01-10T00:51:44;353.05;;;119.85;;
60241;SDS011;46103;52.076;113.488;2023-01-10T00:54:50;348.92;;;117.30;;
60241;SDS011;46103;52.076;113.488;2023-01-10T00:57:53;348.85;;;116.70;;
60241;SDS011;46103;52.076;113.488;2023-01-10T01:00:56;372.30;;;117.65;;
60241;SDS011;46103;52.076;113.488;2023-01-10T01:03:59;354.25;;;121.82;;
60241;SDS011;46103;52.076;113.488;2023-01-10T01:07:03;406.63;;;126.90;;
60241;SDS011;46103;52.076;113.488;2023-01-10T01:10:06;453.73;;;138.63;;
60241;SDS011;46103;52.076;113.488;2023-01-10T01:13:39;410.85;;;130.43;;
60241;SDS011;46103;52.076;113.488;2023-01-10T01:16:42;409.38;;;132.30;;
60241;SDS011;46103;52.076;113.488;2023-01-10T01:19:46;409.52;;;133.35;;
60241;SDS011;46103;52.076;113.488;2023-01-10T01:22:49;435.40;;;141.00;;
60241;SDS011;46103;52.076;113.488;2023-01-10T01:25:54;425.83;;;138.25;;
60241;SDS011;46103;52.076;113.488;2023-01-10T01:28:58;450.70;;;142.13;;
60241;SDS011;46103;52.076;113.488;2023-01-10T01:32:02;395.25;;;138.65;;
60241;SDS011;46103;52.076;113.488;2023-01-10T01:35:06;520.67;;;179.98;;
60241;SDS011;46103;52.076;113.488;2023-01-10T01:38:11;576.47;;;201.23;;
60241;SDS011;46103;52.076;113.488;2023-01-10T01:41:14;488.67;;;169.95;;
60241;SDS011;46103;52.076;113.488;2023-01-10T01:44:44;506.50;;;165.65;;
60241;SDS011;46103;52.076;113.488;2023-01-10T01:51:16;405.55;;;138.00;;
60241;SDS011;46103;52.076;113.488;2023-01-10T01:54:24;405.35;;;134.65;;
60241;SDS011;46103;52.076;113.488;2023-01-10T01:57:29;266.73;;;91.40;;
60241;SDS011;46103;52.076;113.488;2023-01-10T02:00:34;394.80;;;126.00;;
60241;SDS011;46103;52.076;113.488;2023-01-10T02:03:38;327.40;;;112.00;;
60241;SDS011;46103;52.076;113.488;2023-01-10T02:06:47;387.20;;;127.13;;
60241;SDS011;46103;52.076;113.488;2023-01-10T02:09:54;443.67;;;143.70;;
60241;SDS011;46103;52.076;113.488;2023-01-10T02:13:04;494.83;;;165.43;;
60241;SDS011;46103;52.076;113.488;2023-01-10T02:16:10;498.20;;;168.45;;
60241;SDS011;46103;52.076;113.488;2023-01-10T02:19:21;511.10;;;175.30;;
60241;SDS011;46103;52.076;113.488;2023-01-10T02:46:14;598.08;;;228.55;;
60241;SDS011;46103;52.076;113.488;2023-01-10T02:49:26;531.40;;;182.20;;
60241;SDS011;46103;52.076;113.488;2023-01-10T02:52:30;537.08;;;175.23;;
60241;SDS011;46103;52.076;113.488;2023-01-10T02:56:18;604.75;;;232.10;;
60241;SDS011;46103;52.076;113.488;2023-01-10T03:02:56;547.38;;;193.88;;
60241;SDS011;46103;52.076;113.488;2023-01-10T03:12:54;622.05;;;233.43;;
60241;SDS011;46103;52.076;113.488;2023-01-10T03:16:02;619.17;;;232.65;;
60241;SDS011;46103;52.076;113.488;2023-01-10T03:19:10;604.88;;;232.48;;
60241;SDS011;46103;52.076;113.488;2023-01-10T03:22:16;628.05;;;237.88;;
60241;SDS011;46103;52.076;113.488;2023-01-10T03:25:21;461.80;;;152.70;;
60241;SDS011;46103;52.076;113.488;2023-01-10T03:31:35;231.13;;;70.00;;
60241;SDS011;46103;52.076;113.488;2023-01-10T03:34:48;602.77;;;216.10;;
60241;SDS011;46103;52.076;113.488;2023-01-10T03:37:55;598.60;;;222.40;;
60241;SDS011;46103;52.076;113.488;2023-01-10T03:41:10;614.30;;;231.35;;
60241;SDS011;46103;52.076;113.488;2023-01-10T03:47:45;645.75;;;251.10;;
60241;SDS011;46103;52.076;113.488;2023-01-10T03:50:53;673.05;;;271.38;;
60241;SDS011;46103;52.076;113.488;2023-01-10T03:54:01;663.30;;;271.00;;
60241;SDS011;46103;52.076;113.488;2023-01-10T03:57:05;660.63;;;258.92;;
60241;SDS011;46103;52.076;113.488;2023-01-10T04:00:09;682.08;;;269.20;;
60241;SDS011;46103;52.076;113.488;2023-01-10T04:03:15;597.22;;;231.25;;
60241;SDS011;46103;52.076;113.488;2023-01-10T04:06:19;518.58;;;185.88;;
60241;SDS011;46103;52.076;113.488;2023-01-10T04:09:22;577.28;;;218.23;;
60241;SDS011;46103;52.076;113.488;2023-01-10T04:12:26;506.05;;;177.65;;
60241;SDS011;46103;52.076;113.488;2023-01-10T04:15:30;670.90;;;267.85;;
60241;SDS011;46103;52.076;113.488;2023-01-10T04:18:34;461.13;;;150.85;;
60241;SDS011;46103;52.076;113.488;2023-01-10T04:21:38;702.20;;;275.25;;
60241;SDS011;46103;52.076;113.488;2023-01-10T04:24:42;514.95;;;184.00;;
60241;SDS011;46103;52.076;113.488;2023-01-10T04:27:47;561.28;;;213.05;;
60241;SDS011;46103;52.076;113.488;2023-01-10T04:30:54;652.05;;;256.52;;
60241;SDS011;46103;52.076;113.488;2023-01-10T04:33:57;687.28;;;279.20;;
60241;SDS011;46103;52.076;113.488;2023-01-10T04:37:02;554.60;;;199.77;;
60241;SDS011;46103;52.076;113.488;2023-01-10T04:40:06;696.00;;;286.60;;
60241;SDS011;46103;52.076;113.488;2023-01-10T04:43:10;629.75;;;242.82;;
60241;SDS011;46103;52.076;113.488;2023-01-10T04:46:14;714.30;;;294.63;;
60241;SDS011;46103;52.076;113.488;2023-01-10T04:49:18;715.58;;;293.95;;
60241;SDS011;46103;52.076;113.488;2023-01-10T04:52:22;567.42;;;213.75;;
60241;SDS011;46103;52.076;113.488;2023-01-10T04:55:27;750.55;;;306.95;;
60241;SDS011;46103;52.076;113.488;2023-01-10T04:58:32;607.30;;;230.02;;
60241;SDS011;46103;52.076;113.488;2023-01-10T05:01:36;799.22;;;327.98;;
60241;SDS011;46103;52.076;113.488;2023-01-10T05:04:41;437.58;;;156.70;;
60241;SDS011;46103;52.076;113.488;2023-01-10T05:07:45;720.95;;;284.15;;
60241;SDS011;46103;52.076;113.488;2023-01-10T05:10:49;799.38;;;330.58;;
60241;SDS011;46103;52.076;113.488;2023-01-10T05:13:52;807.53;;;324.90;;
60241;SDS011;46103;52.076;113.488;2023-01-10T05:16:56;800.67;;;328.75;;
60241;SDS011;46103;52.076;113.488;2023-01-10T05:20:00;775.60;;;319.25;;
60241;SDS011;46103;52.076;113.488;2023-01-10T05:23:04;796.42;;;323.48;;
60241;SDS011;46103;52.076;113.488;2023-01-10T05:26:09;814.35;;;337.60;;
60241;SDS011;46103;52.076;113.488;2023-01-10T05:29:15;775.05;;;318.45;;
60241;SDS011;46103;52.076;113.488;2023-01-10T05:32:18;756.75;;;312.45;;
60241;SDS011;46103;52.076;113.488;2023-01-10T05:35:21;699.85;;;285.05;;
60241;SDS011;46103;52.076;113.488;2023-01-10T05:38:25;723.63;;;295.27;;
60241;SDS011;46103;52.076;113.488;2023-01-10T05:41:30;716.70;;;291.45;;
60241;SDS011;46103;52.076;113.488;2023-01-10T05:44:34;692.03;;;286.27;;
60241;SDS011;46103;52.076;113.488;2023-01-10T05:47:38;694.80;;;289.52;;
60241;SDS011;46103;52.076;113.488;2023-01-10T05:50:43;660.70;;;272.45;;
60241;SDS011;46103;52.076;113.488;2023-01-10T05:53:46;659.63;;;268.98;;
60241;SDS011;46103;52.076;113.488;2023-01-10T05:56:54;124.80;;;42.38;;
60241;SDS011;46103;52.076;113.488;2023-01-10T05:59:58;427.10;;;138.57;;
60241;SDS011;46103;52.076;113.488;2023-01-10T06:03:11;647.10;;;253.40;;
60241;SDS011;46103;52.076;113.488;2023-01-10T06:06:15;657.03;;;260.10;;
60241;SDS011;46103;52.076;113.488;2023-01-10T06:09:19;601.38;;;244.63;;
60241;SDS011;46103;52.076;113.488;2023-01-10T06:12:22;626.28;;;255.77;;
60241;SDS011;46103;52.076;113.488;2023-01-10T06:15:26;633.58;;;250.45;;
60241;SDS011;46103;52.076;113.488;2023-01-10T06:18:29;610.88;;;240.10;;
60241;SDS011;46103;52.076;113.488;2023-01-10T06:21:32;659.70;;;271.42;;
60241;SDS011;46103;52.076;113.488;2023-01-10T06:24:36;622.78;;;240.27;;
60241;SDS011;46103;52.076;113.488;2023-01-10T06:27:40;580.83;;;215.32;;
60241;SDS011;46103;52.076;113.488;2023-01-10T06:30:45;632.67;;;245.07;;
60241;SDS011;46103;52.076;113.488;2023-01-10T06:33:51;620.92;;;243.70;;
60241;SDS011;46103;52.076;113.488;2023-01-10T06:36:54;606.05;;;223.00;;
60241;SDS011;46103;52.076;113.488;2023-01-10T06:39:57;608.90;;;234.35;;
60241;SDS011;46103;52.076;113.488;2023-01-10T06:43:01;602.97;;;233.02;;
60241;SDS011;46103;52.076;113.488;2023-01-10T06:46:04;607.33;;;236.38;;
60241;SDS011;46103;52.076;113.488;2023-01-10T06:49:08;603.47;;;240.13;;
60241;SDS011;46103;52.076;113.488;2023-01-10T06:52:15;610.88;;;246.05;;
60241;SDS011;46103;52.076;113.488;2023-01-10T06:55:17;638.55;;;254.07;;
60241;SDS011;46103;52.076;113.488;2023-01-10T06:58:20;507.60;;;187.77;;
60241;SDS011;46103;52.076;113.488;2023-01-10T07:01:24;629.30;;;248.25;;
60241;SDS011;46103;52.076;113.488;2023-01-10T07:04:27;634.28;;;248.48;;
60241;SDS011;46103;52.076;113.488;2023-01-10T07:07:31;626.20;;;248.43;;
60241;SDS011;46103;52.076;113.488;2023-01-10T07:10:34;630.38;;;251.27;;
60241;SDS011;46103;52.076;113.488;2023-01-10T07:13:38;637.95;;;253.55;;
60241;SDS011;46103;52.076;113.488;2023-01-10T07:16:42;368.00;;;131.25;;
60241;SDS011;46103;52.076;113.488;2023-01-10T07:19:45;617.47;;;249.20;;
60241;SDS011;46103;52.076;113.488;2023-01-10T07:22:53;309.75;;;100.18;;
60241;SDS011;46103;52.076;113.488;2023-01-10T07:25:57;308.55;;;103.43;;
60241;SDS011;46103;52.076;113.488;2023-01-10T07:29:06;264.40;;;89.53;;
60241;SDS011;46103;52.076;113.488;2023-01-10T07:32:09;241.85;;;74.03;;
60241;SDS011;46103;52.076;113.488;2023-01-10T07:35:13;155.35;;;51.47;;
60241;SDS011;46103;52.076;113.488;2023-01-10T07:38:17;103.07;;;36.95;;
60241;SDS011;46103;52.076;113.488;2023-01-10T07:41:20;289.58;;;101.78;;
60241;SDS011;46103;52.076;113.488;2023-01-10T07:44:24;660.95;;;271.58;;
60241;SDS011;46103;52.076;113.488;2023-01-10T07:47:28;691.55;;;288.52;;
60241;SDS011;46103;52.076;113.488;2023-01-10T07:50:32;721.78;;;308.27;;
60241;SDS011;46103;52.076;113.488;2023-01-10T07:53:38;666.47;;;276.50;;
60241;SDS011;46103;52.076;113.488;2023-01-10T07:56:41;582.80;;;228.10;;
60241;SDS011;46103;52.076;113.488;2023-01-10T07:59:45;622.33;;;245.68;;
60241;SDS011;46103;52.076;113.488;2023-01-10T08:02:51;615.00;;;234.50;;
60241;SDS011;46103;52.076;113.488;2023-01-10T08:05:57;535.03;;;207.55;;
60241;SDS011;46103;52.076;113.488;2023-01-10T08:09:02;658.40;;;264.17;;
60241;SDS011;46103;52.076;113.488;2023-01-10T08:12:08;594.83;;;229.80;;
60241;SDS011;46103;52.076;113.488;2023-01-10T08:15:12;583.65;;;227.15;;
60241;SDS011;46103;52.076;113.488;2023-01-10T08:18:17;581.28;;;227.00;;
60241;SDS011;46103;52.076;113.488;2023-01-10T08:24:28;510.40;;;174.65;;
60241;SDS011;46103;52.076;113.488;2023-01-10T08:27:31;405.88;;;134.45;;
60241;SDS011;46103;52.076;113.488;2023-01-10T08:30:36;348.48;;;117.38;;
60241;SDS011;46103;52.076;113.488;2023-01-10T08:33:39;399.95;;;132.02;;
60241;SDS011;46103;52.076;113.488;2023-01-10T08:36:43;345.67;;;115.43;;
60241;SDS011;46103;52.076;113.488;2023-01-10T08:39:48;371.73;;;119.32;;
60241;SDS011;46103;52.076;113.488;2023-01-10T08:42:59;408.20;;;136.10;;
60241;SDS011;46103;52.076;113.488;2023-01-10T08:46:04;484.65;;;159.27;;
60241;SDS011;46103;52.076;113.488;2023-01-10T08:49:08;488.92;;;170.93;;
60241;SDS011;46103;52.076;113.488;2023-01-10T08:52:12;428.02;;;137.75;;
60241;SDS011;46103;52.076;113.488;2023-01-10T08:55:16;498.13;;;171.23;;
60241;SDS011;46103;52.076;113.488;2023-01-10T08:58:20;506.17;;;179.77;;
60241;SDS011;46103;52.076;113.488;2023-01-10T09:01:24;515.60;;;182.65;;
60241;SDS011;46103;52.076;113.488;2023-01-10T09:04:28;530.10;;;188.27;;
60241;SDS011;46103;52.076;113.488;2023-01-10T09:07:34;522.90;;;183.60;;
60241;SDS011;46103;52.076;113.488;2023-01-10T09:10:38;531.63;;;186.90;;
60241;SDS011;46103;52.076;113.488;2023-01-10T09:13:41;558.83;;;206.57;;
60241;SDS011;46103;52.076;113.488;2023-01-10T09:16:45;549.50;;;204.38;;
60241;SDS011;46103;52.076;113.488;2023-01-10T09:19:48;338.98;;;113.55;;
60241;SDS011;46103;52.076;113.488;2023-01-10T09:22:52;591.47;;;222.35;;
60241;SDS011;46103;52.076;113.488;2023-01-10T09:25:58;585.83;;;221.57;;
60241;SDS011;46103;52.076;113.488;2023-01-10T09:29:02;503.85;;;187.98;;
60241;SDS011;46103;52.076;113.488;2023-01-10T09:32:05;484.17;;;181.63;;
60241;SDS011;46103;52.076;113.488;2023-01-10T09:35:09;738.47;;;295.67;;
60241;SDS011;46103;52.076;113.488;2023-01-10T09:38:13;349.73;;;118.25;;
60241;SDS011;46103;52.076;113.488;2023-01-10T09:41:22;577.10;;;211.13;;
60241;SDS011;46103;52.076;113.488;2023-01-10T09:44:53;654.55;;;244.95;;
60241;SDS011;46103;52.076;113.488;2023-01-10T09:48:07;603.30;;;222.32;;
60241;SDS011;46103;52.076;113.488;2023-01-10T09:51:24;535.78;;;189.95;;
60241;SDS011;46103;52.076;113.488;2023-01-10T09:54:40;574.22;;;215.23;;
60241;SDS011;46103;52.076;113.488;2023-01-10T09:57:45;630.97;;;242.43;;
60241;SDS011;46103;52.076;113.488;2023-01-10T10:00:56;571.42;;;216.07;;
60241;SDS011;46103;52.076;113.488;2023-01-10T10:07:27;563.55;;;210.13;;
60241;SDS011;46103;52.076;113.488;2023-01-10T10:17:05;494.15;;;180.48;;
60241;SDS011;46103;52.076;113.488;2023-01-10T10:30:36;468.08;;;150.90;;
60241;SDS011;46103;52.076;113.488;2023-01-10T10:37:30;449.75;;;147.88;;
60241;SDS011;46103;52.076;113.488;2023-01-10T10:40:39;475.40;;;154.13;;
60241;SDS011;46103;52.076;113.488;2023-01-10T10:43:46;481.33;;;165.00;;
60241;SDS011;46103;52.076;113.488;2023-01-10T10:46:51;380.38;;;123.45;;
60241;SDS011;46103;52.076;113.488;2023-01-10T10:49:57;355.50;;;121.75;;
60241;SDS011;46103;52.076;113.488;2023-01-10T10:53:19;410.27;;;137.13;;
60241;SDS011;46103;52.076;113.488;2023-01-10T10:56:23;406.23;;;136.32;;
60241;SDS011;46103;52.076;113.488;2023-01-10T10:59:28;365.15;;;121.50;;
60241;SDS011;46103;52.076;113.488;2023-01-10T11:02:35;332.15;;;111.43;;
60241;SDS011;46103;52.076;113.488;2023-01-10T11:05:44;369.60;;;123.50;;
60241;SDS011;46103;52.076;113.488;2023-01-10T11:08:49;383.80;;;128.30;;
60241;SDS011;46103;52.076;113.488;2023-01-10T11:11:56;521.03;;;174.77;;
60241;SDS011;46103;52.076;113.488;2023-01-10T11:15:01;580.42;;;216.27;;
60241;SDS011;46103;52.076;113.488;2023-01-10T11:18:06;443.88;;;147.73;;
60241;SDS011;46103;52.076;113.488;2023-01-10T11:27:45;512.15;;;169.20;;
60241;SDS011;46103;52.076;113.488;2023-01-10T11:30:54;545.53;;;187.65;;
60241;SDS011;46103;52.076;113.488;2023-01-10T11:33:58;461.55;;;149.40;;
60241;SDS011;46103;52.076;113.488;2023-01-10T11:40:21;557.05;;;189.68;;
60241;SDS011;46103;52.076;113.488;2023-01-10T11:43:28;537.08;;;192.85;;
60241;SDS011;46103;52.076;113.488;2023-01-10T11:46:33;538.40;;;190.80;;
60241;SDS011;46103;52.076;113.488;2023-01-10T11:49:37;431.67;;;139.82;;
60241;SDS011;46103;52.076;113.488;2023-01-10T11:52:43;461.13;;;154.70;;
60241;SDS011;46103;52.076;113.488;2023-01-10T11:55:49;508.83;;;164.32;;
60241;SDS011;46103;52.076;113.488;2023-01-10T11:58:53;516.15;;;175.63;;
60241;SDS011;46103;52.076;113.488;2023-01-10T12:02:02;527.63;;;183.82;;
60241;SDS011;46103;52.076;113.488;2023-01-10T12:05:11;514.80;;;182.55;;
60241;SDS011;46103;52.076;113.488;2023-01-10T12:11:30;408.85;;;131.18;;
60241;SDS011;46103;52.076;113.488;2023-01-10T12:14:35;349.05;;;119.10;;
60241;SDS011;46103;52.076;113.488;2023-01-10T12:17:39;334.05;;;111.85;;
60241;SDS011;46103;52.076;113.488;2023-01-10T12:20:46;236.55;;;78.57;;
60241;SDS011;46103;52.076;113.488;2023-01-10T12:23:53;363.92;;;118.63;;
60241;SDS011;46103;52.076;113.488;2023-01-10T12:27:01;467.98;;;151.05;;
60241;SDS011;46103;52.076;113.488;2023-01-10T12:30:10;465.55;;;155.35;;
60241;SDS011;46103;52.076;113.488;2023-01-10T12:33:19;486.70;;;163.20;;
60241;SDS011;46103;52.076;113.488;2023-01-10T12:36:40;487.70;;;163.50;;
60241;SDS011;46103;52.076;113.488;2023-01-10T12:39:47;483.92;;;161.88;;
60241;SDS011;46103;52.076;113.488;2023-01-10T12:46:42;450.33;;;150.27;;
60241;SDS011;46103;52.076;113.488;2023-01-10T12:53:35;472.50;;;160.40;;
60241;SDS011;46103;52.076;113.488;2023-01-10T12:56:45;428.38;;;148.18;;
60241;SDS011;46103;52.076;113.488;2023-01-10T12:59:50;504.70;;;170.93;;
60241;SDS011;46103;52.076;113.488;2023-01-10T13:02:58;460.63;;;156.70;;
60241;SDS011;46103;52.076;113.488;2023-01-10T13:12:25;489.20;;;170.57;;
60241;SDS011;46103;52.076;113.488;2023-01-10T13:15:38;491.00;;;175.20;;
60241;SDS011;46103;52.076;113.488;2023-01-10T13:19:15;500.85;;;184.85;;
60241;SDS011;46103;52.076;113.488;2023-01-10T13:22:26;525.25;;;190.05;;
60241;SDS011;46103;52.076;113.488;2023-01-10T13:25:32;578.72;;;222.90;;
60241;SDS011;46103;52.076;113.488;2023-01-10T13:28:44;571.35;;;214.77;;
60241;SDS011;46103;52.076;113.488;2023-01-10T13:32:11;577.20;;;210.18;;
60241;SDS011;46103;52.076;113.488;2023-01-10T13:35:23;635.47;;;239.98;;
60241;SDS011;46103;52.076;113.488;2023-01-10T13:38:31;620.15;;;245.65;;
60241;SDS011;46103;52.076;113.488;2023-01-10T13:42:39;604.33;;;232.45;;
60241;SDS011;46103;52.076;113.488;2023-01-10T13:45:29;636.55;;;245.68;;
60241;SDS011;46103;52.076;113.488;2023-01-10T13:48:32;622.05;;;244.85;;
60241;SDS011;46103;52.076;113.488;2023-01-10T13:51:35;560.83;;;217.02;;
60241;SDS011;46103;52.076;113.488;2023-01-10T13:54:53;617.30;;;223.73;;
60241;SDS011;46103;52.076;113.488;2023-01-10T13:58:02;590.67;;;211.85;;
60241;SDS011;46103;52.076;113.488;2023-01-10T14:01:24;600.38;;;222.30;;
60241;SDS011;46103;52.076;113.488;2023-01-10T14:04:52;662.10;;;244.77;;
60241;SDS011;46103;52.076;113.488;2023-01-10T14:08:13;649.47;;;236.88;;
60241;SDS011;46103;52.076;113.488;2023-01-10T14:11:21;635.72;;;237.80;;
60241;SDS011;46103;52.076;113.488;2023-01-10T14:17:40;623.08;;;233.50;;
60241;SDS011;46103;52.076;113.488;2023-01-10T14:20:44;653.92;;;246.75;;
60241;SDS011;46103;52.076;113.488;2023-01-10T14:23:59;677.88;;;251.98;;
60241;SDS011;46103;52.076;113.488;2023-01-10T14:27:03;722.67;;;277.30;;
60241;SDS011;46103;52.076;113.488;2023-01-10T14:30:13;681.58;;;263.02;;
60241;SDS011;46103;52.076;113.488;2023-01-10T14:33:23;659.88;;;264.88;;
60241;SDS011;46103;52.076;113.488;2023-01-10T14:36:28;579.00;;;217.27;;
60241;SDS011;46103;52.076;113.488;2023-01-10T14:39:44;518.63;;;185.02;;
60241;SDS011;46103;52.076;113.488;2023-01-10T14:42:47;479.23;;;166.70;;
60241;SDS011;46103;52.076;113.488;2023-01-10T14:46:02;472.15;;;158.20;;
60241;SDS011;46103;52.076;113.488;2023-01-10T14:49:20;470.40;;;158.13;;
60241;SDS011;46103;52.076;113.488;2023-01-10T14:52:25;421.45;;;137.52;;
60241;SDS011;46103;52.076;113.488;2023-01-10T14:55:28;302.60;;;100.72;;
60241;SDS011;46103;52.076;113.488;2023-01-10T14:58:32;350.13;;;107.43;;
60241;SDS011;46103;52.076;113.488;2023-01-10T15:01:36;515.83;;;181.27;;
60241;SDS011;46103;52.076;113.488;2023-01-10T15:04:46;593.03;;;220.90;;
60241;SDS011;46103;52.076;113.488;2023-01-10T15:08:20;501.98;;;177.52;;
60241;SDS011;46103;52.076;113.488;2023-01-10T15:11:29;266.45;;;87.93;;
60241;SDS011;46103;52.076;113.488;2023-01-10T15:14:34;225.05;;;72.72;;
60241;SDS011;46103;52.076;113.488;2023-01-10T15:17:39;327.42;;;104.47;;
60241;SDS011;46103;52.076;113.488;2023-01-10T15:20:45;418.38;;;139.82;;
60241;SDS011;46103;52.076;113.488;2023-01-10T15:23:50;436.20;;;142.82;;
60241;SDS011;46103;52.076;113.488;2023-01-10T15:26:56;476.63;;;157.02;;
60241;SDS011;46103;52.076;113.488;2023-01-10T15:30:03;516.38;;;171.52;;
60241;SDS011;46103;52.076;113.488;2023-01-10T15:33:11;542.88;;;195.88;;
60241;SDS011;46103;52.076;113.488;2023-01-10T15:36:17;537.38;;;192.02;;
60241;SDS011;46103;52.076;113.488;2023-01-10T15:39:26;526.40;;;180.98;;
60241;SDS011;46103;52.076;113.488;2023-01-10T15:42:36;546.92;;;190.98;;
60241;SDS011;46103;52.076;113.488;2023-01-10T15:45:40;519.50;;;173.73;;
60241;SDS011;46103;52.076;113.488;2023-01-10T15:48:52;551.67;;;196.18;;
60241;SDS011;46103;52.076;113.488;2023-01-10T15:52:18;527.45;;;186.90;;
60241;SDS011;46103;52.076;113.488;2023-01-10T15:58:46;458.45;;;153.23;;
60241;SDS011;46103;52.076;113.488;2023-01-10T16:05:08;472.00;;;153.88;;
60241;SDS011;46103;52.076;113.488;2023-01-10T16:08:21;424.75;;;139.02;;
60241;SDS011;46103;52.076;113.488;2023-01-10T16:15:13;513.35;;;168.68;;
60241;SDS011;46103;52.076;113.488;2023-01-10T16:18:19;353.13;;;127.43;;
60241;SDS011;46103;52.076;113.488;2023-01-10T16:21:24;399.25;;;149.10;;
60241;SDS011;46103;52.076;113.488;2023-01-10T16:24:34;586.67;;;215.82;;
60241;SDS011;46103;52.076;113.488;2023-01-10T16:27:46;603.15;;;227.63;;
60241;SDS011;46103;52.076;113.488;2023-01-10T16:30:51;496.10;;;182.05;;
60241;SDS011;46103;52.076;113.488;2023-01-10T16:33:54;561.95;;;201.98;;
60241;SDS011;46103;52.076;113.488;2023-01-10T16:36:58;556.38;;;200.07;;
60241;SDS011;46103;52.076;113.488;2023-01-10T16:40:09;517.75;;;170.80;;
60241;SDS011;46103;52.076;113.488;2023-01-10T16:43:24;536.70;;;184.48;;
60241;SDS011;46103;52.076;113.488;2023-01-10T16:46:30;498.20;;;161.15;;
60241;SDS011;46103;52.076;113.488;2023-01-10T16:49:34;448.85;;;144.45;;
60241;SDS011;46103;52.076;113.488;2023-01-10T16:52:38;413.27;;;128.23;;
60241;SDS011;46103;52.076;113.488;2023-01-10T16:55:42;448.15;;;146.95;;
60241;SDS011;46103;52.076;113.488;2023-01-10T16:58:54;439.92;;;146.30;;
60241;SDS011;46103;52.076;113.488;2023-01-10T17:01:58;503.15;;;166.48;;
60241;SDS011;46103;52.076;113.488;2023-01-10T17:05:02;515.38;;;175.68;;
60241;SDS011;46103;52.076;113.488;2023-01-10T17:08:08;494.42;;;159.48;;
60241;SDS011;46103;52.076;113.488;2023-01-10T17:11:21;521.60;;;172.77;;
60241;SDS011;46103;52.076;113.488;2023-01-10T17:14:30;481.63;;;157.23;;
60241;SDS011;46103;52.076;113.488;2023-01-10T17:17:36;458.30;;;153.73;;
60241;SDS011;46103;52.076;113.488;2023-01-10T17:20:39;448.73;;;138.48;;
60241;SDS011;46103;52.076;113.488;2023-01-10T17:23:43;355.98;;;115.70;;
60241;SDS011;46103;52.076;113.488;2023-01-10T17:26:48;333.90;;;105.03;;
60241;SDS011;46103;52.076;113.488;2023-01-10T17:29:51;308.05;;;98.72;;
60241;SDS011;46103;52.076;113.488;2023-01-10T17:32:55;296.13;;;96.32;;
60241;SDS011;46103;52.076;113.488;2023-01-10T17:36:00;290.67;;;91.50;;
60241;SDS011;46103;52.076;113.488;2023-01-10T17:39:04;290.67;;;92.78;;
60241;SDS011;46103;52.076;113.488;2023-01-10T17:42:08;281.92;;;92.05;;
60241;SDS011;46103;52.076;113.488;2023-01-10T17:45:12;259.63;;;84.03;;
60241;SDS011;46103;52.076;113.488;2023-01-10T17:48:16;322.48;;;101.47;;
60241;SDS011;46103;52.076;113.488;2023-01-10T17:51:19;309.77;;;96.57;;
60241;SDS011;46103;52.076;113.488;2023-01-10T17:54:26;272.83;;;85.03;;
60241;SDS011;46103;52.076;113.488;2023-01-10T17:57:30;339.02;;;103.75;;
60241;SDS011;46103;52.076;113.488;2023-01-10T18:00:34;421.20;;;134.80;;
60241;SDS011;46103;52.076;113.488;2023-01-10T18:03:39;421.42;;;131.48;;
60241;SDS011;46103;52.076;113.488;2023-01-10T18:06:42;359.85;;;117.18;;
60241;SDS011;46103;52.076;113.488;2023-01-10T18:09:46;508.73;;;166.80;;
60241;SDS011;46103;52.076;113.488;2023-01-10T18:12:50;521.78;;;175.43;;
60241;SDS011;46103;52.076;113.488;2023-01-10T18:15:54;531.17;;;175.27;;
60241;SDS011;46103;52.076;113.488;2023-01-10T18:18:57;535.58;;;187.20;;
60241;SDS011;46103;52.076;113.488;2023-01-10T18:22:02;557.20;;;194.52;;
60241;SDS011;46103;52.076;113.488;2023-01-10T18:25:29;525.60;;;174.88;;
60241;SDS011;46103;52.076;113.488;2023-01-10T18:28:36;486.40;;;159.57;;
60241;SDS011;46103;52.076;113.488;2023-01-10T18:31:44;388.65;;;126.25;;
60241;SDS011;46103;52.076;113.488;2023-01-10T18:34:48;336.05;;;116.07;;
60241;SDS011;46103;52.076;113.488;2023-01-10T18:37:52;272.42;;;99.10;;
60241;SDS011;46103;52.076;113.488;2023-01-10T18:40:56;531.95;;;192.52;;
60241;SDS011;46103;52.076;113.488;2023-01-10T18:44:00;209.40;;;69.35;;
60241;SDS011;46103;52.076;113.488;2023-01-10T18:47:04;382.77;;;122.90;;
60241;SDS011;46103;52.076;113.488;2023-01-10T18:50:08;237.40;;;79.28;;
60241;SDS011;46103;52.076;113.488;2023-01-10T18:53:12;508.45;;;170.10;;
60241;SDS011;46103;52.076;113.488;2023-01-10T18:56:15;651.28;;;216.27;;
60241;SDS011;46103;52.076;113.488;2023-01-10T18:59:18;573.63;;;196.15;;
60241;SDS011;46103;52.076;113.488;2023-01-10T19:02:21;526.30;;;175.75;;
60241;SDS011;46103;52.076;113.488;2023-01-10T19:05:25;522.25;;;162.98;;